createdAt,value
2018-03-22T00:01:02.204Z,24.37
2018-03-22T00:03:30.679Z,24.40
2018-03-22T00:05:59.124Z,19.40
2018-03-22T00:08:26.859Z,22.97
2018-03-22T00:10:54.501Z,22.27
2018-03-22T00:13:22.958Z,20.77
2018-03-22T00:15:51.408Z,20.60
2018-03-22T00:18:20.096Z,24.90
2018-03-22T00:20:47.797Z,27.67
2018-03-22T00:23:15.488Z,25.23
2018-03-22T00:25:43.162Z,22.60
2018-03-22T00:28:10.972Z,25.60
2018-03-22T00:30:38.641Z,22.90
2018-03-22T00:33:06.329Z,24.33
2018-03-22T00:35:34.056Z,23.77
2018-03-22T00:38:02.485Z,21.00
2018-03-22T00:40:31.264Z,26.63
2018-03-22T00:42:58.921Z,31.30
2018-03-22T00:45:27.628Z,22.43
2018-03-22T00:47:56.103Z,27.73
2018-03-22T00:50:23.789Z,29.27
2018-03-22T00:52:51.506Z,24.93
2018-03-22T00:55:19.552Z,25.27
2018-03-22T00:57:48.007Z,27.23
2018-03-22T01:00:15.716Z,25.10
2018-03-22T01:02:43.463Z,27.67
2018-03-22T01:05:11.130Z,28.03
2018-03-22T01:07:38.782Z,28.50
2018-03-22T01:10:07.665Z,24.80
2018-03-22T01:12:36.094Z,26.03
2018-03-22T01:15:03.834Z,26.77
2018-03-22T01:17:32.527Z,25.17
2018-03-22T01:20:00.180Z,28.27
2018-03-22T01:22:28.140Z,24.23
2018-03-22T01:24:55.828Z,24.80
2018-03-22T01:27:23.554Z,22.30
2018-03-22T01:29:52.065Z,22.43
2018-03-22T01:32:19.825Z,22.80
2018-03-22T01:34:49.234Z,21.77
2018-03-22T01:37:17.010Z,28.20
2018-03-22T01:39:44.672Z,29.33
2018-03-22T01:42:12.390Z,22.10
2018-03-22T01:44:40.048Z,25.27
2018-03-22T01:47:07.685Z,25.83
2018-03-22T01:49:35.398Z,23.10
2018-03-22T01:52:03.124Z,33.87
2018-03-22T01:54:30.893Z,26.00
2018-03-22T01:56:58.564Z,24.83
2018-03-22T01:59:26.273Z,23.40
2018-03-22T02:01:53.960Z,23.60
2018-03-22T02:04:21.717Z,28.50
2018-03-22T02:06:49.421Z,23.43
2018-03-22T02:09:17.093Z,23.57
2018-03-22T02:11:44.787Z,19.53
2018-03-22T02:14:12.476Z,25.00
2018-03-22T02:16:40.217Z,18.10
2018-03-22T02:19:08.684Z,25.30
2018-03-22T02:21:36.391Z,25.27
2018-03-22T02:24:04.032Z,27.70
2018-03-22T02:26:31.716Z,20.07
2018-03-22T02:28:59.372Z,26.63
2018-03-22T02:31:27.061Z,21.33
2018-03-22T02:33:54.739Z,24.70
2018-03-22T02:36:23.197Z,24.20
2018-03-22T02:38:50.856Z,23.87
2018-03-22T02:41:18.544Z,23.50
2018-03-22T02:43:46.272Z,25.93
2018-03-22T02:46:13.905Z,25.20
2018-03-22T02:48:41.565Z,23.00
2018-03-22T02:51:09.277Z,21.20
2018-03-22T02:53:36.912Z,23.67
2018-03-22T02:56:04.588Z,22.03
2018-03-22T02:58:32.323Z,24.10
2018-03-22T03:01:00.042Z,26.27
2018-03-22T03:03:28.502Z,25.70
2018-03-22T03:05:56.180Z,28.70
2018-03-22T03:08:24.591Z,23.00
2018-03-22T03:10:52.264Z,25.47
2018-03-22T03:13:19.971Z,21.20
2018-03-22T03:15:47.612Z,24.07
2018-03-22T03:18:15.283Z,24.63
2018-03-22T03:20:42.949Z,29.70
2018-03-22T03:23:10.619Z,27.10
2018-03-22T03:25:39.039Z,22.67
2018-03-22T03:28:06.709Z,22.90
2018-03-22T03:30:34.593Z,23.90
2018-03-22T03:33:02.272Z,23.10
2018-03-22T03:35:29.966Z,20.63
2018-03-22T03:37:57.716Z,22.70
2018-03-22T03:40:25.415Z,22.60
2018-03-22T03:42:53.100Z,27.90
2018-03-22T03:45:20.735Z,21.50
2018-03-22T03:47:48.432Z,20.07
2018-03-22T03:50:16.131Z,19.33
2018-03-22T03:52:43.863Z,26.33
2018-03-22T03:55:12.352Z,21.53
2018-03-22T03:57:40.804Z,22.03
2018-03-22T04:00:08.458Z,19.90
2018-03-22T04:02:36.244Z,19.33
2018-03-22T04:05:04.747Z,24.30
2018-03-22T04:07:33.245Z,23.80
2018-03-22T04:10:00.928Z,20.87
2018-03-22T04:12:28.633Z,29.60
2018-03-22T04:14:57.081Z,21.70
2018-03-22T04:17:24.787Z,20.20
2018-03-22T04:19:52.497Z,21.47
2018-03-22T04:22:20.138Z,18.50
2018-03-22T04:24:47.960Z,16.77
2018-03-22T04:27:16.424Z,21.70
2018-03-22T04:29:44.141Z,20.27
2018-03-22T04:32:11.825Z,18.63
2018-03-22T04:34:39.558Z,28.63
2018-03-22T04:37:07.221Z,23.60
2018-03-22T04:39:34.914Z,21.60
2018-03-22T04:42:02.692Z,26.77
2018-03-22T04:44:30.346Z,23.20
2018-03-22T04:46:58.039Z,20.73
2018-03-22T04:49:25.752Z,17.37
2018-03-22T04:51:53.428Z,21.00
2018-03-22T04:54:21.161Z,22.90
2018-03-22T04:56:48.874Z,23.47
2018-03-22T04:59:17.329Z,20.53
2018-03-22T05:01:45.060Z,21.23
2018-03-22T05:04:12.769Z,22.73
2018-03-22T05:06:41.555Z,20.23
2018-03-22T05:09:09.296Z,19.17
2018-03-22T05:11:37.046Z,22.27
2018-03-22T05:14:04.744Z,17.90
2018-03-22T05:16:33.316Z,20.00
2018-03-22T05:19:01.002Z,19.87
2018-03-22T05:21:28.665Z,21.17
2018-03-22T05:23:56.345Z,18.60
2018-03-22T05:26:24.042Z,20.17
2018-03-22T05:28:51.750Z,21.83
2018-03-22T05:31:20.227Z,29.90
2018-03-22T05:33:48.677Z,17.90
2018-03-22T05:36:16.359Z,17.00
2018-03-22T05:38:44.087Z,17.87
2018-03-22T05:41:11.785Z,18.80
2018-03-22T05:43:40.174Z,18.97
2018-03-22T05:46:09.924Z,20.30
2018-03-22T05:48:37.613Z,17.90
2018-03-22T05:51:05.339Z,20.43
2018-03-22T05:53:33.943Z,17.97
2018-03-22T05:56:01.665Z,17.00
2018-03-22T05:58:29.449Z,17.90
2018-03-22T06:00:57.222Z,18.97
2018-03-22T06:03:24.950Z,17.30
2018-03-22T06:05:52.621Z,21.00
2018-03-22T06:08:20.313Z,19.50
2018-03-22T06:10:48.012Z,18.40
2018-03-22T06:13:15.700Z,17.17
2018-03-22T06:15:43.359Z,19.10
2018-03-22T06:18:11.017Z,17.70
2018-03-22T06:20:38.904Z,23.67
2018-03-22T06:23:06.608Z,21.53
2018-03-22T06:25:35.060Z,20.33
2018-03-22T06:28:02.723Z,16.07
2018-03-22T06:30:30.425Z,14.93
2018-03-22T06:32:58.142Z,18.80
2018-03-22T06:35:25.823Z,15.67
2018-03-22T06:37:53.517Z,16.60
2018-03-22T06:40:21.196Z,16.50
2018-03-22T06:42:48.845Z,16.23
2018-03-22T06:45:16.575Z,12.70
2018-03-22T06:47:45.028Z,12.57
2018-03-22T06:50:13.475Z,15.30
2018-03-22T06:52:41.195Z,12.97
2018-03-22T06:55:09.660Z,14.87
2018-03-22T06:57:37.366Z,12.57
2018-03-22T07:00:05.122Z,12.50
2018-03-22T07:02:32.886Z,11.63
2018-03-22T07:05:00.532Z,13.20
2018-03-22T07:07:28.976Z,11.60
2018-03-22T07:09:56.652Z,13.30
2018-03-22T07:12:25.108Z,18.17
2018-03-22T07:14:52.824Z,17.27
2018-03-22T07:17:20.525Z,16.03
2018-03-22T07:19:48.246Z,12.60
2018-03-22T07:22:15.961Z,11.13
2018-03-22T07:24:43.692Z,17.20
2018-03-22T07:27:11.356Z,11.47
2018-03-22T07:29:39.059Z,12.27
2018-03-22T07:32:06.715Z,15.00
2018-03-22T07:34:34.376Z,16.27
2018-03-22T07:37:02.924Z,13.13
2018-03-22T07:39:30.599Z,13.70
2018-03-22T07:41:58.261Z,16.63
2018-03-22T07:44:31.757Z,13.67
2018-03-22T07:46:59.538Z,12.80
2018-03-22T07:49:27.207Z,12.93
2018-03-22T07:51:55.677Z,15.10
2018-03-22T07:54:24.851Z,16.80
2018-03-22T07:56:52.489Z,13.93
2018-03-22T07:59:20.936Z,16.90
2018-03-22T08:01:48.616Z,13.77
2018-03-22T08:04:16.308Z,12.80
2018-03-22T08:06:44.092Z,15.40
2018-03-22T08:09:11.800Z,17.33
2018-03-22T08:11:39.470Z,18.67
2018-03-22T08:14:07.256Z,17.10
2018-03-22T08:16:34.964Z,19.47
2018-03-22T08:19:02.629Z,14.90
2018-03-22T08:21:30.317Z,12.80
2018-03-22T08:23:58.015Z,14.20
2018-03-22T08:26:25.684Z,11.93
2018-03-22T08:28:53.421Z,12.27
2018-03-22T08:31:21.134Z,13.67
2018-03-22T08:33:48.812Z,16.63
2018-03-22T08:36:16.527Z,22.00
2018-03-22T08:38:44.212Z,16.60
2018-03-22T08:41:11.988Z,20.27
2018-03-22T08:43:40.420Z,15.70
2018-03-22T08:46:08.153Z,13.30
2018-03-22T08:48:36.581Z,13.70
2018-03-22T08:51:05.118Z,13.63
2018-03-22T08:53:32.919Z,15.83
2018-03-22T08:56:00.599Z,11.07
2018-03-22T08:58:28.308Z,12.77
2018-03-22T09:00:56.032Z,14.63
2018-03-22T09:03:23.752Z,14.53
2018-03-22T09:05:51.516Z,17.40
2018-03-22T09:08:19.251Z,18.30
2018-03-22T09:10:47.526Z,15.13
2018-03-22T09:13:15.258Z,14.90
2018-03-22T09:15:42.955Z,15.80
2018-03-22T09:18:10.644Z,13.93
2018-03-22T09:20:38.320Z,12.70
2018-03-22T09:23:06.888Z,13.10
2018-03-22T09:25:35.345Z,12.93
2018-03-22T09:28:03.029Z,12.43
2018-03-22T09:30:31.499Z,11.00
2018-03-22T09:32:59.368Z,10.03
2018-03-22T09:35:27.077Z,17.33
2018-03-22T09:37:54.776Z,16.53
2018-03-22T09:40:22.524Z,11.40
2018-03-22T09:42:51.247Z,9.10
2018-03-22T09:45:19.008Z,11.00
2018-03-22T09:47:47.415Z,20.10
2018-03-22T09:50:15.166Z,14.00
2018-03-22T09:52:43.659Z,11.10
2018-03-22T09:55:11.351Z,11.03
2018-03-22T09:57:39.061Z,15.07
2018-03-22T10:00:07.524Z,10.63
2018-03-22T10:02:35.212Z,9.90
2018-03-22T10:05:02.969Z,10.30
2018-03-22T10:07:30.641Z,9.27
2018-03-22T10:09:58.291Z,12.60
2018-03-22T10:12:25.964Z,10.70
2018-03-22T10:14:53.632Z,10.40
2018-03-22T10:17:21.342Z,11.10
2018-03-22T10:19:49.025Z,10.13
2018-03-22T10:22:17.476Z,14.30
2018-03-22T10:24:45.107Z,9.17
2018-03-22T10:27:12.804Z,7.47
2018-03-22T10:29:40.507Z,8.00
2018-03-22T10:32:08.239Z,10.47
2018-03-22T10:34:35.923Z,18.73
2018-03-22T10:37:03.631Z,11.43
2018-03-22T10:39:31.316Z,10.87
2018-03-22T10:41:59.768Z,14.43
2018-03-22T10:44:27.469Z,10.20
2018-03-22T10:46:55.950Z,8.70
2018-03-22T10:49:24.441Z,9.80
2018-03-22T10:51:52.143Z,10.23
2018-03-22T10:54:19.852Z,11.10
2018-03-22T10:56:48.287Z,9.90
2018-03-22T10:59:15.968Z,9.10
2018-03-22T11:01:49.409Z,9.60
2018-03-22T11:04:17.168Z,10.03
2018-03-22T11:06:44.840Z,8.57
2018-03-22T11:09:12.619Z,12.27
2018-03-22T11:11:40.312Z,10.23
2018-03-22T11:14:07.988Z,9.23
2018-03-22T11:16:38.007Z,10.17
2018-03-22T11:19:05.708Z,8.07
2018-03-22T11:21:33.399Z,8.73
2018-03-22T11:24:01.152Z,10.57
2018-03-22T11:26:28.843Z,13.63
2018-03-22T11:28:57.284Z,10.17
2018-03-22T11:31:25.042Z,8.67
2018-03-22T11:33:52.727Z,13.83
2018-03-22T11:36:20.391Z,12.47
2018-03-22T11:38:48.104Z,9.90
2018-03-22T11:41:15.798Z,10.37
2018-03-22T11:43:43.510Z,9.90
2018-03-22T11:46:11.235Z,11.47
2018-03-22T11:48:38.976Z,8.87
2018-03-22T11:51:06.659Z,10.60
2018-03-22T11:53:34.475Z,12.20
2018-03-22T11:56:02.172Z,13.73
2018-03-22T11:58:33.148Z,8.80
2018-03-22T12:01:02.855Z,9.80
2018-03-22T12:03:30.570Z,9.67
2018-03-22T12:05:58.237Z,8.57
2018-03-22T12:08:26.024Z,9.30
2018-03-22T12:10:53.784Z,9.77
2018-03-22T12:13:21.407Z,8.70
2018-03-22T12:15:49.085Z,10.40
2018-03-22T12:18:16.832Z,9.70
2018-03-22T12:20:45.349Z,9.23
2018-03-22T12:23:13.085Z,10.40
2018-03-22T12:25:40.769Z,11.33
2018-03-22T12:28:09.253Z,13.77
2018-03-22T12:30:37.786Z,12.30
2018-03-22T12:33:05.473Z,8.93
2018-03-22T12:35:33.152Z,11.70
2018-03-22T12:38:00.904Z,10.37
2018-03-22T12:40:28.605Z,8.60
2018-03-22T12:42:56.271Z,9.40
2018-03-22T12:45:23.968Z,8.53
2018-03-22T12:47:51.657Z,9.03
2018-03-22T12:50:20.047Z,9.07
2018-03-22T12:52:48.477Z,7.53
2018-03-22T12:55:16.151Z,6.03
2018-03-22T12:57:43.849Z,8.40
2018-03-22T13:00:11.588Z,5.33
2018-03-22T13:02:39.321Z,5.40
2018-03-22T13:05:07.023Z,8.33
2018-03-22T13:07:34.720Z,6.23
2018-03-22T13:10:02.429Z,9.37
2018-03-22T13:12:30.107Z,7.53
2018-03-22T13:14:58.587Z,9.83
2018-03-22T13:17:27.030Z,6.30
2018-03-22T13:19:54.732Z,5.67
2018-03-22T13:22:23.280Z,5.53
2018-03-22T13:24:50.951Z,6.60
2018-03-22T13:27:18.625Z,6.97
2018-03-22T13:29:47.100Z,8.00
2018-03-22T13:32:14.785Z,10.97
2018-03-22T13:34:42.466Z,6.80
2018-03-22T13:37:10.180Z,10.03
2018-03-22T13:39:37.870Z,8.30
2018-03-22T13:42:05.559Z,10.57
2018-03-22T13:44:33.307Z,5.87
2018-03-22T13:47:00.979Z,7.73
2018-03-22T13:49:28.660Z,10.63
2018-03-22T13:51:56.361Z,7.30
2018-03-22T13:54:24.824Z,6.03
2018-03-22T13:56:52.450Z,9.03
2018-03-22T13:59:20.175Z,9.37
2018-03-22T14:01:47.896Z,8.07
2018-03-22T14:04:15.538Z,8.57
2018-03-22T14:06:43.208Z,11.30
2018-03-22T14:09:10.909Z,9.70
2018-03-22T14:11:38.589Z,9.40
2018-03-22T14:14:06.297Z,8.37
2018-03-22T14:16:33.998Z,8.90
2018-03-22T14:19:01.627Z,7.70
2018-03-22T14:21:29.309Z,9.80
2018-03-22T14:23:57.757Z,7.97
2018-03-22T14:26:25.430Z,7.30
2018-03-22T14:28:53.163Z,9.63
2018-03-22T14:31:20.865Z,11.63
2018-03-22T14:33:49.256Z,14.00
2018-03-22T14:36:17.698Z,8.90
2018-03-22T14:38:45.448Z,8.90
2018-03-22T14:41:13.065Z,6.67
2018-03-22T14:43:40.739Z,9.83
2018-03-22T14:46:08.402Z,10.47
2018-03-22T14:48:36.056Z,8.47
2018-03-22T14:51:03.787Z,10.27
2018-03-22T14:53:32.272Z,8.90
2018-03-22T14:56:00.690Z,8.40
2018-03-22T14:58:28.364Z,8.57
2018-03-22T15:00:56.032Z,8.10
2018-03-22T15:03:23.684Z,16.53
2018-03-22T15:05:51.380Z,8.80
2018-03-22T15:08:19.840Z,12.77
2018-03-22T15:10:47.487Z,8.40
2018-03-22T15:13:15.163Z,7.20
2018-03-22T15:15:42.824Z,9.00
2018-03-22T15:18:10.475Z,8.80
2018-03-22T15:20:38.140Z,8.50
2018-03-22T15:23:05.816Z,8.07
2018-03-22T15:25:34.228Z,8.33
2018-03-22T15:28:01.894Z,8.77
2018-03-22T15:30:29.640Z,7.10
2018-03-22T15:32:57.272Z,6.60
2018-03-22T15:35:24.949Z,9.33
2018-03-22T15:37:53.412Z,8.53
2018-03-22T15:40:21.113Z,6.17
2018-03-22T15:42:48.804Z,6.17
2018-03-22T15:45:16.495Z,8.07
2018-03-22T15:47:44.223Z,11.20
2018-03-22T15:50:11.870Z,10.30
2018-03-22T15:52:40.386Z,10.37
2018-03-22T15:55:08.050Z,15.57
2018-03-22T15:57:36.552Z,10.47
2018-03-22T16:00:05.069Z,9.17
2018-03-22T16:02:32.814Z,10.33
2018-03-22T16:05:00.461Z,11.87
2018-03-22T16:07:28.992Z,9.97
2018-03-22T16:09:56.673Z,11.23
2018-03-22T16:12:24.366Z,12.90
2018-03-22T16:14:52.811Z,10.87
2018-03-22T16:17:20.524Z,11.43
2018-03-22T16:19:48.210Z,12.07
2018-03-22T16:22:15.893Z,12.60
2018-03-22T16:24:43.547Z,14.33
2018-03-22T16:27:11.208Z,12.63
2018-03-22T16:29:38.909Z,10.73
2018-03-22T16:32:06.608Z,12.07
2018-03-22T16:34:34.276Z,15.47
2018-03-22T16:37:01.956Z,11.77
2018-03-22T16:39:29.603Z,12.50
2018-03-22T16:41:57.313Z,16.07
2018-03-22T16:44:25.791Z,15.23
2018-03-22T16:46:53.430Z,16.60
2018-03-22T16:49:21.116Z,21.80
2018-03-22T16:51:48.793Z,16.80
2018-03-22T16:54:17.224Z,11.63
2018-03-22T16:56:44.922Z,14.23
2018-03-22T16:59:12.660Z,12.77
2018-03-22T17:01:41.072Z,14.60
2018-03-22T17:04:08.739Z,12.23
2018-03-22T17:06:36.424Z,12.40
2018-03-22T17:09:04.162Z,17.00
2018-03-22T17:11:31.856Z,11.43
2018-03-22T17:14:00.322Z,13.63
2018-03-22T17:16:27.996Z,14.13
2018-03-22T17:18:55.669Z,14.73
2018-03-22T17:21:23.342Z,15.20
2018-03-22T17:23:51.745Z,15.00
2018-03-22T17:26:19.885Z,16.03
2018-03-22T17:28:48.507Z,18.43
2018-03-22T17:31:17.432Z,15.10
2018-03-22T17:33:47.182Z,17.40
2018-03-22T17:36:15.655Z,21.50
2018-03-22T17:38:45.354Z,17.40
2018-03-22T17:41:13.623Z,16.10
2018-03-22T17:43:42.173Z,20.60
2018-03-22T17:46:10.161Z,18.30
2018-03-22T17:48:39.183Z,15.90
2018-03-22T17:51:07.291Z,22.37
2018-03-22T17:53:36.394Z,18.83
2018-03-22T17:56:04.910Z,23.10
2018-03-22T17:58:33.835Z,18.70
2018-03-22T18:03:35.450Z,20.20
2018-03-22T18:06:04.173Z,24.57
2018-03-22T18:08:32.790Z,21.43
2018-03-22T18:11:01.270Z,17.87
2018-03-22T18:13:29.816Z,21.53
2018-03-22T18:15:59.180Z,21.13
2018-03-22T18:18:32.430Z,25.50
2018-03-22T18:21:00.649Z,23.50
2018-03-22T18:23:29.212Z,22.47
2018-03-22T18:25:57.772Z,18.63
2018-03-22T18:28:26.060Z,18.27
2018-03-22T18:30:54.350Z,20.57
2018-03-22T18:33:23.876Z,16.00
2018-03-22T18:35:52.616Z,20.30
2018-03-22T18:38:21.191Z,19.70
2018-03-22T18:40:49.799Z,19.93
2018-03-22T18:43:18.172Z,24.53
2018-03-22T18:45:54.462Z,20.87
2018-03-22T18:48:23.159Z,19.93
2018-03-22T18:50:51.812Z,19.80
2018-03-22T18:53:21.004Z,22.40
2018-03-22T18:55:49.358Z,18.87
2018-03-22T18:58:17.719Z,16.67
2018-03-22T19:00:45.868Z,19.50
2018-03-22T19:03:14.045Z,20.50
2018-03-22T19:05:43.285Z,16.67
2018-03-22T19:08:11.559Z,18.10
2018-03-22T19:10:40.062Z,17.20
2018-03-22T19:13:08.140Z,15.20
2018-03-22T19:15:38.056Z,16.80
2018-03-22T19:18:05.980Z,17.77
2018-03-22T19:20:34.545Z,14.60
2018-03-22T19:23:02.828Z,18.17
2018-03-22T19:25:31.174Z,14.87
2018-03-22T19:27:59.176Z,16.50
2018-03-22T19:30:27.270Z,16.87
2018-03-22T19:32:55.441Z,17.03
2018-03-22T19:35:24.148Z,19.90
2018-03-22T19:37:53.478Z,16.33
2018-03-22T19:40:22.491Z,17.77
2018-03-22T19:42:50.866Z,21.73
2018-03-22T19:45:19.325Z,16.47
2018-03-22T19:47:47.540Z,18.20
2018-03-22T19:50:16.236Z,18.07
2018-03-22T19:52:44.410Z,19.37
2018-03-22T19:55:12.766Z,19.27
2018-03-22T19:57:41.322Z,19.17
2018-03-22T20:00:10.354Z,17.50
2018-03-22T20:02:38.763Z,20.50
2018-03-22T20:05:07.420Z,24.13
2018-03-22T20:07:35.508Z,19.47
2018-03-22T20:10:05.259Z,26.80
2018-03-22T20:12:33.600Z,19.50
2018-03-22T20:15:02.776Z,18.63
2018-03-22T20:17:31.512Z,21.10
2018-03-22T20:19:59.224Z,26.00
2018-03-22T20:22:26.903Z,17.60
2018-03-22T20:24:55.349Z,17.83
2018-03-22T20:27:23.030Z,22.70
2018-03-22T20:29:50.729Z,23.47
2018-03-22T20:32:18.395Z,21.07
2018-03-22T20:34:46.316Z,18.90
2018-03-22T20:37:14.987Z,19.67
2018-03-22T20:39:42.665Z,21.13
2018-03-22T20:42:10.348Z,19.73
2018-03-22T20:44:38.805Z,16.90
2018-03-22T20:47:06.899Z,22.77
2018-03-22T20:49:34.630Z,21.10
2018-03-22T20:52:02.304Z,20.53
2018-03-22T20:54:30.740Z,20.57
2018-03-22T20:56:58.898Z,17.47
2018-03-22T20:59:27.160Z,20.97
2018-03-22T21:01:54.812Z,20.83
2018-03-22T21:04:22.520Z,21.63
2018-03-22T21:06:50.210Z,17.50
2018-03-22T21:09:17.982Z,17.90
2018-03-22T21:11:45.910Z,20.97
2018-03-22T21:14:13.784Z,21.70
2018-03-22T21:16:41.557Z,20.00
2018-03-22T21:19:09.370Z,19.73
2018-03-22T21:21:37.116Z,17.37
2018-03-22T21:24:04.851Z,20.53
2018-03-22T21:26:33.408Z,20.07
2018-03-22T21:29:01.144Z,20.30
2018-03-22T21:31:28.796Z,20.90
2018-03-22T21:33:56.556Z,19.60
2018-03-22T21:36:24.296Z,27.27
2018-03-22T21:38:52.719Z,20.53
2018-03-22T21:41:20.431Z,20.33
2018-03-22T21:44:00.624Z,21.20
2018-03-22T21:46:28.373Z,28.90
2018-03-22T21:48:56.175Z,22.00
2018-03-22T21:51:23.862Z,25.10
2018-03-22T21:53:51.705Z,22.80
2018-03-22T21:56:19.623Z,24.97
2018-03-22T21:58:47.499Z,25.20
2018-03-22T22:01:15.457Z,26.07
2018-03-22T22:03:44.073Z,32.53
2018-03-22T22:06:13.091Z,28.83
2018-03-22T22:08:40.800Z,30.60
2018-03-22T22:11:08.521Z,28.10
2018-03-22T22:13:36.962Z,27.43
2018-03-22T22:16:04.725Z,34.20
2018-03-22T22:18:32.491Z,30.60
2018-03-22T22:21:00.250Z,30.77
2018-03-22T22:23:28.047Z,28.40
2018-03-22T22:25:56.613Z,30.77
2018-03-22T22:28:24.358Z,32.83
2018-03-22T22:30:52.276Z,28.13
2018-03-22T22:33:19.985Z,30.97
2018-03-22T22:35:47.686Z,31.13
2018-03-22T22:38:16.137Z,30.43
2018-03-22T22:40:43.807Z,33.20
2018-03-22T22:43:11.460Z,27.53
2018-03-22T22:45:39.148Z,31.47
2018-03-22T22:48:07.609Z,35.03
2018-03-22T22:50:35.286Z,27.63
2018-03-22T22:53:03.800Z,26.70
2018-03-22T22:55:31.478Z,32.10
2018-03-22T22:57:59.144Z,31.20
2018-03-22T23:00:27.216Z,27.67
2018-03-22T23:02:55.180Z,27.80
2018-03-22T23:05:22.942Z,25.97
2018-03-22T23:07:50.875Z,28.37
2018-03-22T23:10:18.731Z,30.57
2018-03-22T23:12:47.259Z,31.43
2018-03-22T23:15:15.070Z,27.43
2018-03-22T23:17:43.648Z,29.40
2018-03-22T23:20:12.107Z,32.43
2018-03-22T23:22:40.653Z,27.90
2018-03-22T23:25:08.436Z,26.57
2018-03-22T23:27:36.111Z,28.63
2018-03-22T23:30:04.083Z,29.53
2018-03-22T23:32:31.923Z,29.37
2018-03-22T23:34:59.638Z,31.93
2018-03-22T23:37:27.459Z,29.50
2018-03-22T23:39:55.302Z,27.80
2018-03-22T23:42:23.879Z,29.60
2018-03-22T23:44:51.648Z,26.33
2018-03-22T23:47:19.523Z,32.03
2018-03-22T23:49:47.313Z,27.87
2018-03-22T23:52:15.803Z,27.47
2018-03-22T23:54:44.308Z,30.00
2018-03-22T23:57:11.976Z,35.33
2018-03-22T23:59:39.663Z,29.33
